Time;durP1;ratioP1;P1;durP2;ratioP2;P2;SDS_P1;SDS_P2;PMS_P1;PMS_P2;Temp;Humidity;BMP_temperature;BMP_pressure;BME280_temperature;BME280_humidity;BME280_pressure;Samples;Min_cycle;Max_cycle;Signal;HPM_P1;HPM_P2
2022/06/15 00:00:33;;;;;;;;;;;;;;;;;;5065714;28;19926;-58
2022/06/15 00:02:59;;;;;;;;;;;;;;;;;;5064757;28;19912;-58
2022/06/15 00:05:24;;;;;;;;;;;;;;;;;;5064677;28;19904;-58
2022/06/15 00:07:52;;;;;;;;;;;;;;;;;;5065010;28;19949;-58
2022/06/15 00:10:18;;;;;;;;;;;;;;;;;;5064252;28;19963;-58
2022/06/15 00:12:44;;;;;;;;;;;;;;;;;;5063295;28;19935;-58
2022/06/15 00:15:10;;;;;;;;;;;;;;;;;;5064667;28;19966;-58
2022/06/15 00:17:36;;;;;;;;;;;;;;;;;;5060325;28;19916;-58
2022/06/15 00:20:02;;;;;;;;;;;;;;;;;;5044891;28;19908;-58
2022/06/15 00:22:28;;;;;;;;;;;;;;;;;;5044213;28;19934;-58
2022/06/15 00:24:54;;;;;;;;;;;;;;;;;;5062064;28;19915;-57
2022/06/15 00:27:20;;;;;;;;;;;;;;;;;;5064505;28;20334;-58
2022/06/15 00:29:46;;;;;;;;;;;;;;;;;;5064589;28;19939;-58
2022/06/15 00:32:12;;;;;;;;;;;;;;;;;;5055200;28;19919;-58
2022/06/15 00:34:37;;;;;;;;;;;;;;;;;;5044010;28;19909;-58
2022/06/15 00:37:05;;;;;;;;;;;;;;;;;;5045213;28;19954;-58
2022/06/15 00:39:32;;;;;;;;;;;;;;;;;;5044252;28;19995;-58
2022/06/15 00:41:58;;;;;;;;;;;;;;;;;;5044440;28;19916;-58
2022/06/15 00:44:24;;;;;;;;;;;;;;;;;;5076345;28;20315;-58
2022/06/15 00:46:50;;;;;;;;;;;;;;;;;;5051991;28;19915;-57
2022/06/15 00:49:17;;;;;;;;;;;;;;;;;;5044781;28;19909;-58
2022/06/15 00:51:43;;;;;;;;;;;;;;;;;;5044499;28;19908;-58
2022/06/15 00:54:09;;;;;;;;;;;;;;;;;;5044264;28;19912;-58
2022/06/15 00:56:35;;;;;;;;;;;;;;;;;;5044715;28;19913;-58
2022/06/15 00:59:01;;;;;;;;;;;;;;;;;;5047794;28;19944;-58
2022/06/15 01:01:26;;;;;;;;;;;;;;;;;;5048281;28;19909;-58
2022/06/15 01:03:52;;;;;;;;;;;;;;;;;;5066662;28;19912;-58
2022/06/15 01:06:19;;;;;;;;;;;;;;;;;;5067996;28;19983;-58
2022/06/15 01:08:45;;;;;;;;;;;;;;;;;;5053709;28;19912;-58
2022/06/15 01:11:11;;;;;;;;;;;;;;;;;;5047958;28;19908;-58
2022/06/15 01:13:37;;;;;;;;;;;;;;;;;;5048641;28;20462;-58
2022/06/15 01:16:03;;;;;;;;;;;;;;;;;;5080701;28;19915;-58
2022/06/15 01:18:29;;;;;;;;;;;;;;;;;;5047769;28;19916;-58
2022/06/15 01:20:56;;;;;;;;;;;;;;;;;;5048085;28;19905;-58
2022/06/15 01:23:26;;;;;;;;;;;;;;;;;;5048239;28;20296;-58
2022/06/15 01:25:52;;;;;;;;;;;;;;;;;;5049040;28;20281;-57
2022/06/15 01:28:18;;;;;;;;;;;;;;;;;;5069872;28;20002;-56
2022/06/15 01:30:44;;;;;;;;;;;;;;;;;;5049752;28;19919;-56
2022/06/15 01:33:10;;;;;;;;;;;;;;;;;;5050153;28;19995;-56
2022/06/15 01:35:36;;;;;;;;;;;;;;;;;;5050239;28;19944;-56
2022/06/15 01:38:02;;;;;;;;;;;;;;;;;;5050136;28;19987;-56
2022/06/15 01:40:28;;;;;;;;;;;;;;;;;;5049644;28;19999;-56
2022/06/15 01:42:54;;;;;;;;;;;;;;;;;;5049738;28;19912;-56
2022/06/15 01:45:20;;;;;;;;;;;;;;;;;;5049607;28;19920;-56
2022/06/15 01:47:45;;;;;;;;;;;;;;;;;;5049586;28;19909;-56
2022/06/15 01:50:11;;;;;;;;;;;;;;;;;;5058856;28;19958;-56
2022/06/15 01:52:37;;;;;;;;;;;;;;;;;;5069327;28;19916;-56
2022/06/15 01:55:03;;;;;;;;;;;;;;;;;;5070070;28;19924;-56
2022/06/15 01:57:29;;;;;;;;;;;;;;;;;;5068079;28;19915;-56
2022/06/15 01:59:56;;;;;;;;;;;;;;;;;;5069235;28;19904;-57
2022/06/15 02:02:22;;;;;;;;;;;;;;;;;;5068623;28;19915;-56
2022/06/15 02:04:48;;;;;;;;;;;;;;;;;;5069313;28;19909;-56
2022/06/15 02:07:14;;;;;;;;;;;;;;;;;;5069489;28;20577;-56
2022/06/15 02:09:40;;;;;;;;;;;;;;;;;;5067612;28;19908;-56
2022/06/15 02:12:06;;;;;;;;;;;;;;;;;;5068908;28;19916;-56
2022/06/15 02:14:32;;;;;;;;;;;;;;;;;;5069226;28;20019;-56
2022/06/15 02:16:58;;;;;;;;;;;;;;;;;;5069160;28;20359;-56
2022/06/15 02:19:24;;;;;;;;;;;;;;;;;;5068857;28;19995;-56
2022/06/15 02:21:50;;;;;;;;;;;;;;;;;;5069064;28;19904;-56
2022/06/15 02:24:17;;;;;;;;;;;;;;;;;;5068797;28;19950;-56
2022/06/15 02:26:43;;;;;;;;;;;;;;;;;;5057150;28;20371;-56
2022/06/15 02:29:09;;;;;;;;;;;;;;;;;;5057354;28;19938;-56
2022/06/15 02:31:35;;;;;;;;;;;;;;;;;;5069059;28;19986;-56
2022/06/15 02:34:00;;;;;;;;;;;;;;;;;;5068840;28;19950;-56
2022/06/15 02:36:26;;;;;;;;;;;;;;;;;;5068638;28;19904;-56
2022/06/15 02:38:52;;;;;;;;;;;;;;;;;;5068850;28;19908;-56
2022/06/15 02:41:19;;;;;;;;;;;;;;;;;;5067248;28;20419;-56
2022/06/15 02:43:45;;;;;;;;;;;;;;;;;;5060812;28;19913;-56
2022/06/15 02:46:11;;;;;;;;;;;;;;;;;;5048485;28;20003;-56
2022/06/15 02:48:37;;;;;;;;;;;;;;;;;;5048461;28;19911;-56
2022/06/15 02:51:03;;;;;;;;;;;;;;;;;;5049048;28;19923;-56
2022/06/15 02:53:29;;;;;;;;;;;;;;;;;;5049828;28;19909;-57
2022/06/15 02:55:55;;;;;;;;;;;;;;;;;;5068717;28;19966;-56
2022/06/15 02:58:21;;;;;;;;;;;;;;;;;;5068287;28;19904;-56
2022/06/15 03:00:46;;;;;;;;;;;;;;;;;;5068521;28;19946;-56
2022/06/15 03:03:12;;;;;;;;;;;;;;;;;;5067828;28;20049;-56
2022/06/15 03:05:40;;;;;;;;;;;;;;;;;;5069827;28;19977;-56
2022/06/15 03:08:06;;;;;;;;;;;;;;;;;;5068782;28;20280;-56
2022/06/15 03:10:32;;;;;;;;;;;;;;;;;;5067933;28;19909;-56
2022/06/15 03:12:58;;;;;;;;;;;;;;;;;;5067220;28;20149;-57
2022/06/15 03:15:24;;;;;;;;;;;;;;;;;;5067751;28;19920;-56
2022/06/15 03:17:49;;;;;;;;;;;;;;;;;;5067999;28;19904;-56
2022/06/15 03:20:15;;;;;;;;;;;;;;;;;;5067422;28;19912;-56
2022/06/15 03:22:42;;;;;;;;;;;;;;;;;;5067583;28;19974;-56
2022/06/15 03:25:08;;;;;;;;;;;;;;;;;;5067872;28;20002;-56
2022/06/15 03:27:34;;;;;;;;;;;;;;;;;;5067715;28;20079;-56
2022/06/15 03:30:00;;;;;;;;;;;;;;;;;;5067573;28;19912;-56
2022/06/15 03:32:26;;;;;;;;;;;;;;;;;;5067189;28;19995;-56
2022/06/15 03:34:52;;;;;;;;;;;;;;;;;;5067551;28;19998;-56
2022/06/15 03:37:18;;;;;;;;;;;;;;;;;;5067124;28;19939;-56
2022/06/15 03:39:43;;;;;;;;;;;;;;;;;;5067081;28;19981;-56
2022/06/15 03:42:09;;;;;;;;;;;;;;;;;;5066744;28;19919;-55
2022/06/15 03:44:36;;;;;;;;;;;;;;;;;;5067861;28;19904;-56
2022/06/15 03:47:02;;;;;;;;;;;;;;;;;;5067280;28;19900;-56
2022/06/15 03:49:28;;;;;;;;;;;;;;;;;;5067190;28;19912;-56
2022/06/15 03:51:54;;;;;;;;;;;;;;;;;;5066680;28;19940;-56
2022/06/15 03:54:21;;;;;;;;;;;;;;;;;;5066727;28;19916;-56
2022/06/15 03:56:47;;;;;;;;;;;;;;;;;;5067193;28;19927;-56
2022/06/15 03:59:13;;;;;;;;;;;;;;;;;;5067296;28;20386;-56
2022/06/15 04:01:39;;;;;;;;;;;;;;;;;;5066717;28;19908;-56
2022/06/15 04:04:05;;;;;;;;;;;;;;;;;;5067229;28;19995;-56
2022/06/15 04:06:31;;;;;;;;;;;;;;;;;;5065756;28;19911;-56
2022/06/15 04:08:57;;;;;;;;;;;;;;;;;;5047715;28;19909;-56
2022/06/15 04:14:10;;;;;;;;;;;;;;;;;;5047534;28;19988;-56
2022/06/15 04:16:36;;;;;;;;;;;;;;;;;;5047187;28;20364;-56
2022/06/15 04:19:03;;;;;;;;;;;;;;;;;;5079014;28;20356;-56
2022/06/15 04:21:29;;;;;;;;;;;;;;;;;;5047400;28;20376;-56
2022/06/15 04:23:55;;;;;;;;;;;;;;;;;;5046794;28;19905;-56
2022/06/15 04:26:21;;;;;;;;;;;;;;;;;;5047249;28;19923;-56
2022/06/15 04:28:47;;;;;;;;;;;;;;;;;;5046802;28;19904;-56
2022/06/15 04:31:13;;;;;;;;;;;;;;;;;;5046142;28;19917;-57
2022/06/15 04:33:39;;;;;;;;;;;;;;;;;;5046404;28;19909;-56
2022/06/15 04:36:05;;;;;;;;;;;;;;;;;;5047880;28;19909;-56
2022/06/15 04:38:31;;;;;;;;;;;;;;;;;;5046603;28;19905;-56
2022/06/15 04:40:57;;;;;;;;;;;;;;;;;;5060550;28;19969;-56
2022/06/15 04:43:23;;;;;;;;;;;;;;;;;;5066432;28;19989;-56
2022/06/15 04:45:49;;;;;;;;;;;;;;;;;;5046535;28;19909;-56
2022/06/15 04:48:15;;;;;;;;;;;;;;;;;;5046844;28;19941;-56
2022/06/15 04:50:41;;;;;;;;;;;;;;;;;;5045580;28;19909;-56
2022/06/15 04:53:07;;;;;;;;;;;;;;;;;;5046502;28;19905;-56
2022/06/15 04:55:32;;;;;;;;;;;;;;;;;;5046316;28;19913;-56
2022/06/15 04:57:59;;;;;;;;;;;;;;;;;;5062570;28;19954;-56
2022/06/15 05:00:25;;;;;;;;;;;;;;;;;;5065872;28;19912;-56
2022/06/15 05:02:51;;;;;;;;;;;;;;;;;;5066030;28;19904;-56
2022/06/15 05:05:17;;;;;;;;;;;;;;;;;;5065189;28;19915;-56
2022/06/15 05:07:43;;;;;;;;;;;;;;;;;;5066354;28;19912;-56
2022/06/15 05:10:09;;;;;;;;;;;;;;;;;;5066283;28;20065;-56
2022/06/15 05:12:35;;;;;;;;;;;;;;;;;;5066862;28;19908;-56
2022/06/15 05:15:02;;;;;;;;;;;;;;;;;;5066627;28;19970;-56
2022/06/15 05:17:27;;;;;;;;;;;;;;;;;;5066189;28;20387;-56
2022/06/15 05:19:53;;;;;;;;;;;;;;;;;;5061098;28;19971;-56
2022/06/15 05:22:19;;;;;;;;;;;;;;;;;;5045917;28;19913;-56
2022/06/15 05:24:46;;;;;;;;;;;;;;;;;;5046309;28;19936;-56
2022/06/15 05:27:12;;;;;;;;;;;;;;;;;;5046148;28;19995;-56
2022/06/15 05:29:38;;;;;;;;;;;;;;;;;;5045762;28;20011;-56
2022/06/15 05:32:04;;;;;;;;;;;;;;;;;;5046759;28;19909;-56
2022/06/15 05:34:30;;;;;;;;;;;;;;;;;;5052349;28;19965;-56
2022/06/15 05:36:56;;;;;;;;;;;;;;;;;;5056428;28;19982;-56
2022/06/15 05:39:22;;;;;;;;;;;;;;;;;;5045693;28;20367;-56
2022/06/15 05:41:50;;;;;;;;;;;;;;;;;;5046378;28;19905;-56
2022/06/15 05:44:32;;;;;;;;;;;;;;;;;;5048403;28;19916;-56
2022/06/15 05:46:59;;;;;;;;;;;;;;;;;;5049722;28;20352;-56
2022/06/15 05:49:25;;;;;;;;;;;;;;;;;;5049195;28;20402;-56
2022/06/15 05:51:51;;;;;;;;;;;;;;;;;;5050711;28;19954;-56
2022/06/15 05:54:16;;;;;;;;;;;;;;;;;;5066251;28;19935;-56
2022/06/15 05:56:43;;;;;;;;;;;;;;;;;;5069741;28;19999;-56
2022/06/15 05:59:09;;;;;;;;;;;;;;;;;;5069569;28;19900;-56
2022/06/15 06:01:36;;;;;;;;;;;;;;;;;;5069674;28;19920;-56
2022/06/15 06:04:02;;;;;;;;;;;;;;;;;;5068569;28;20467;-56
2022/06/15 06:06:28;;;;;;;;;;;;;;;;;;5069539;28;19958;-56
2022/06/15 06:08:54;;;;;;;;;;;;;;;;;;5068281;28;19909;-56
2022/06/15 06:11:20;;;;;;;;;;;;;;;;;;5068882;28;19916;-56
2022/06/15 06:13:46;;;;;;;;;;;;;;;;;;5066298;28;19934;-56
2022/06/15 06:16:13;;;;;;;;;;;;;;;;;;5049611;28;19936;-56
2022/06/15 06:18:39;;;;;;;;;;;;;;;;;;5049090;28;19908;-56
2022/06/15 06:21:05;;;;;;;;;;;;;;;;;;5049859;28;19931;-56
2022/06/15 06:23:31;;;;;;;;;;;;;;;;;;5049109;28;19908;-56
2022/06/15 06:25:57;;;;;;;;;;;;;;;;;;5049115;28;19911;-56
2022/06/15 06:28:23;;;;;;;;;;;;;;;;;;5048727;28;19912;-56
2022/06/15 06:30:48;;;;;;;;;;;;;;;;;;5057186;28;19919;-56
2022/06/15 06:33:14;;;;;;;;;;;;;;;;;;5068661;28;19911;-56
2022/06/15 06:35:40;;;;;;;;;;;;;;;;;;5051056;28;19927;-56
2022/06/15 06:38:06;;;;;;;;;;;;;;;;;;5048609;28;19905;-56
2022/06/15 06:40:32;;;;;;;;;;;;;;;;;;5048993;28;19931;-56
2022/06/15 06:42:58;;;;;;;;;;;;;;;;;;5060352;28;19904;-56
2022/06/15 06:45:24;;;;;;;;;;;;;;;;;;5068458;28;19910;-56
2022/06/15 06:47:50;;;;;;;;;;;;;;;;;;5053959;28;20054;-56
2022/06/15 06:50:16;;;;;;;;;;;;;;;;;;5068088;28;19916;-56
2022/06/15 06:52:42;;;;;;;;;;;;;;;;;;5068749;28;19931;-56
2022/06/15 06:55:08;;;;;;;;;;;;;;;;;;5066920;28;20418;-57
2022/06/15 06:57:34;;;;;;;;;;;;;;;;;;5068819;28;19908;-56
2022/06/15 07:00:00;;;;;;;;;;;;;;;;;;5069971;28;19915;-56
2022/06/15 07:02:26;;;;;;;;;;;;;;;;;;5068383;28;19913;-56
2022/06/15 07:04:52;;;;;;;;;;;;;;;;;;5068462;28;19904;-56
2022/06/15 07:07:18;;;;;;;;;;;;;;;;;;5068834;28;19950;-56
2022/06/15 07:09:44;;;;;;;;;;;;;;;;;;5068281;28;19915;-56
2022/06/15 07:12:10;;;;;;;;;;;;;;;;;;5068265;28;19908;-56
2022/06/15 07:14:36;;;;;;;;;;;;;;;;;;5071516;28;19930;-56
2022/06/15 07:17:02;;;;;;;;;;;;;;;;;;5086618;28;19908;-56
2022/06/15 07:19:27;;;;;;;;;;;;;;;;;;5087969;28;20062;-56
2022/06/15 07:21:53;;;;;;;;;;;;;;;;;;5085901;28;19931;-57
2022/06/15 07:24:19;;;;;;;;;;;;;;;;;;5084961;28;19941;-57
2022/06/15 07:26:47;;;;;;;;;;;;;;;;;;5087095;28;19915;-56
2022/06/15 07:29:13;;;;;;;;;;;;;;;;;;5074126;28;19915;-57
2022/06/15 07:31:39;;;;;;;;;;;;;;;;;;5065950;28;20711;-57
2022/06/15 07:34:04;;;;;;;;;;;;;;;;;;5067437;28;19965;-57
2022/06/15 07:36:30;;;;;;;;;;;;;;;;;;5067201;28;19916;-56
2022/06/15 07:38:56;;;;;;;;;;;;;;;;;;5065812;28;19908;-56
2022/06/15 07:41:23;;;;;;;;;;;;;;;;;;5048756;28;19909;-56
2022/06/15 07:43:48;;;;;;;;;;;;;;;;;;5046377;28;19913;-56
2022/06/15 07:46:14;;;;;;;;;;;;;;;;;;5045808;28;19912;-57
2022/06/15 07:51:25;;;;;;;;;;;;;;;;;;5045527;28;19915;-56
2022/06/15 07:53:51;;;;;;;;;;;;;;;;;;5054242;28;20322;-56
2022/06/15 07:56:17;;;;;;;;;;;;;;;;;;5051465;28;19963;-56
2022/06/15 07:58:43;;;;;;;;;;;;;;;;;;5056375;28;20399;-56
2022/06/15 08:01:09;;;;;;;;;;;;;;;;;;5066862;28;19912;-56
2022/06/15 08:03:37;;;;;;;;;;;;;;;;;;5057336;28;19908;-56
2022/06/15 08:06:02;;;;;;;;;;;;;;;;;;5058851;28;19909;-56
2022/06/15 08:08:28;;;;;;;;;;;;;;;;;;5066657;28;19911;-56
2022/06/15 08:10:54;;;;;;;;;;;;;;;;;;5067054;28;19917;-56
2022/06/15 08:13:20;;;;;;;;;;;;;;;;;;5069374;28;19944;-56
2022/06/15 08:15:46;;;;;;;;;;;;;;;;;;5067697;28;19908;-57
2022/06/15 08:18:12;;;;;;;;;;;;;;;;;;5067076;28;20441;-57
2022/06/15 08:20:38;;;;;;;;;;;;;;;;;;5069467;28;19908;-56
2022/06/15 08:23:04;;;;;;;;;;;;;;;;;;5066023;28;19908;-57
2022/06/15 08:25:30;;;;;;;;;;;;;;;;;;5066517;28;19970;-56
2022/06/15 08:27:56;;;;;;;;;;;;;;;;;;5067536;28;19916;-56
2022/06/15 08:30:22;;;;;;;;;;;;;;;;;;5048219;28;19948;-56
2022/06/15 08:32:48;;;;;;;;;;;;;;;;;;5047153;28;19916;-57
2022/06/15 08:35:14;;;;;;;;;;;;;;;;;;5046749;28;19958;-57
2022/06/15 08:37:40;;;;;;;;;;;;;;;;;;5051241;28;20386;-58
2022/06/15 08:40:06;;;;;;;;;;;;;;;;;;5064123;28;19912;-58
2022/06/15 08:42:32;;;;;;;;;;;;;;;;;;5067046;28;19999;-57
2022/06/15 08:44:59;;;;;;;;;;;;;;;;;;5057287;28;19905;-57
2022/06/15 08:47:28;;;;;;;;;;;;;;;;;;5060340;28;20382;-57
2022/06/15 08:49:54;;;;;;;;;;;;;;;;;;5044905;28;19913;-58
2022/06/15 08:52:20;;;;;;;;;;;;;;;;;;5044670;28;20276;-57
2022/06/15 08:54:47;;;;;;;;;;;;;;;;;;5044932;28;19912;-58
2022/06/15 08:57:12;;;;;;;;;;;;;;;;;;5044835;28;19905;-58
2022/06/15 08:59:38;;;;;;;;;;;;;;;;;;5044514;28;19912;-57
2022/06/15 09:02:04;;;;;;;;;;;;;;;;;;5044925;28;19904;-57
2022/06/15 09:04:30;;;;;;;;;;;;;;;;;;5045133;28;19920;-57
2022/06/15 09:06:56;;;;;;;;;;;;;;;;;;5044821;28;19974;-57
2022/06/15 09:09:23;;;;;;;;;;;;;;;;;;5044513;28;19909;-58
2022/06/15 09:11:49;;;;;;;;;;;;;;;;;;5044980;28;19948;-57
2022/06/15 09:14:15;;;;;;;;;;;;;;;;;;5044376;28;19951;-57
2022/06/15 09:16:42;;;;;;;;;;;;;;;;;;5044526;28;19959;-57
2022/06/15 09:19:08;;;;;;;;;;;;;;;;;;5046419;28;20369;-58
2022/06/15 09:21:34;;;;;;;;;;;;;;;;;;5048159;28;19908;-58
2022/06/15 09:24:00;;;;;;;;;;;;;;;;;;5049229;28;20011;-57
2022/06/15 09:26:26;;;;;;;;;;;;;;;;;;5048294;28;19912;-57
2022/06/15 09:28:52;;;;;;;;;;;;;;;;;;5048521;28;20986;-57
2022/06/15 09:31:18;;;;;;;;;;;;;;;;;;5048597;28;19913;-57
2022/06/15 09:33:44;;;;;;;;;;;;;;;;;;5048194;28;20269;-57
2022/06/15 09:36:10;;;;;;;;;;;;;;;;;;5048227;28;19920;-57
2022/06/15 09:38:38;;;;;;;;;;;;;;;;;;5048306;28;19914;-57
2022/06/15 09:41:04;;;;;;;;;;;;;;;;;;5048422;28;19999;-57
2022/06/15 09:43:30;;;;;;;;;;;;;;;;;;5048510;28;20283;-57
2022/06/15 09:45:56;;;;;;;;;;;;;;;;;;5048329;28;20231;-58
2022/06/15 09:48:22;;;;;;;;;;;;;;;;;;5047865;28;19909;-58
2022/06/15 09:50:48;;;;;;;;;;;;;;;;;;5048144;28;19961;-58
2022/06/15 09:53:17;;;;;;;;;;;;;;;;;;5047734;28;20300;-57
2022/06/15 09:55:44;;;;;;;;;;;;;;;;;;5048163;28;19917;-58
2022/06/15 09:58:09;;;;;;;;;;;;;;;;;;5047957;28;19912;-57
2022/06/15 10:00:35;;;;;;;;;;;;;;;;;;5049379;28;19909;-58
2022/06/15 10:03:02;;;;;;;;;;;;;;;;;;5068805;28;19912;-58
2022/06/15 10:05:28;;;;;;;;;;;;;;;;;;5069532;28;19917;-58
2022/06/15 10:07:54;;;;;;;;;;;;;;;;;;5070718;28;20311;-57
2022/06/15 10:10:21;;;;;;;;;;;;;;;;;;5068278;28;19916;-57
2022/06/15 10:12:57;;;;;;;;;;;;;;;;;;5063599;28;19948;-57
2022/06/15 10:15:23;;;;;;;;;;;;;;;;;;5049038;28;19912;-58
2022/06/15 10:17:49;;;;;;;;;;;;;;;;;;5048982;28;19904;-57
2022/06/15 10:20:15;;;;;;;;;;;;;;;;;;5049085;28;19904;-57
2022/06/15 10:22:41;;;;;;;;;;;;;;;;;;5052267;28;19934;-57
2022/06/15 10:25:07;;;;;;;;;;;;;;;;;;5068350;28;19912;-58
2022/06/15 10:27:33;;;;;;;;;;;;;;;;;;5066863;28;19918;-58
2022/06/15 10:29:59;;;;;;;;;;;;;;;;;;5087827;28;19931;-59
2022/06/15 10:32:25;;;;;;;;;;;;;;;;;;5068471;28;19944;-64
2022/06/15 10:34:51;;;;;;;;;;;;;;;;;;5068675;28;19904;-64
2022/06/15 10:37:17;;;;;;;;;;;;;;;;;;5067540;28;19966;-62
2022/06/15 10:39:43;;;;;;;;;;;;;;;;;;5068517;28;19912;-61
2022/06/15 10:42:09;;;;;;;;;;;;;;;;;;5058554;28;19908;-60
2022/06/15 10:44:35;;;;;;;;;;;;;;;;;;5073865;28;19931;-60
2022/06/15 10:47:00;;;;;;;;;;;;;;;;;;5069188;28;19909;-60
2022/06/15 10:49:27;;;;;;;;;;;;;;;;;;5065306;28;19909;-60
2022/06/15 10:51:53;;;;;;;;;;;;;;;;;;5049817;28;20894;-60
2022/06/15 10:54:19;;;;;;;;;;;;;;;;;;5060508;28;19908;-58
2022/06/15 11:02:14;;;;;;;;;;;;;;;;;;5076292;28;19915;-59
2022/06/15 11:04:40;;;;;;;;;;;;;;;;;;5088356;28;19904;-59
2022/06/15 11:07:06;;;;;;;;;;;;;;;;;;5062423;28;19914;-59
2022/06/15 11:09:32;;;;;;;;;;;;;;;;;;5068796;28;19912;-58
2022/06/15 11:11:58;;;;;;;;;;;;;;;;;;5072582;28;19912;-58
2022/06/15 11:14:24;;;;;;;;;;;;;;;;;;5088024;28;19904;-59
2022/06/15 11:19:35;;;;;;;;;;;;;;;;;;5065752;28;19915;-59
2022/06/15 11:22:01;;;;;;;;;;;;;;;;;;5068477;28;19919;-59
2022/06/15 11:24:27;;;;;;;;;;;;;;;;;;5067505;28;19904;-59
2022/06/15 11:26:53;;;;;;;;;;;;;;;;;;5055561;28;19947;-59
2022/06/15 11:29:19;;;;;;;;;;;;;;;;;;5071194;28;19916;-59
2022/06/15 11:31:45;;;;;;;;;;;;;;;;;;5077228;28;19956;-59
2022/06/15 11:34:11;;;;;;;;;;;;;;;;;;5071580;28;19908;-59
2022/06/15 11:36:37;;;;;;;;;;;;;;;;;;5068280;28;19908;-59
2022/06/15 11:39:03;;;;;;;;;;;;;;;;;;5067687;28;19956;-59
2022/06/15 11:41:28;;;;;;;;;;;;;;;;;;5066901;28;19920;-59
2022/06/15 11:43:55;;;;;;;;;;;;;;;;;;5056866;28;19982;-59
2022/06/15 11:46:21;;;;;;;;;;;;;;;;;;5058993;28;19916;-58
2022/06/15 11:48:48;;;;;;;;;;;;;;;;;;5065985;28;19904;-59
2022/06/15 11:51:15;;;;;;;;;;;;;;;;;;5066923;28;19916;-58
2022/06/15 11:53:42;;;;;;;;;;;;;;;;;;5065896;28;20074;-59
2022/06/15 11:56:08;;;;;;;;;;;;;;;;;;5073215;28;19922;-59
2022/06/15 11:58:35;;;;;;;;;;;;;;;;;;5086748;28;20298;-59
2022/06/15 12:01:01;;;;;;;;;;;;;;;;;;5086635;28;19908;-58
2022/06/15 12:03:28;;;;;;;;;;;;;;;;;;5057824;28;19912;-58
2022/06/15 12:05:54;;;;;;;;;;;;;;;;;;5062095;28;19991;-58
2022/06/15 12:08:21;;;;;;;;;;;;;;;;;;5062221;28;20463;-58
2022/06/15 12:10:47;;;;;;;;;;;;;;;;;;5066146;28;20402;-58
2022/06/15 12:13:13;;;;;;;;;;;;;;;;;;5066581;28;19916;-58
2022/06/15 12:15:40;;;;;;;;;;;;;;;;;;5065884;28;19908;-59
2022/06/15 12:18:07;;;;;;;;;;;;;;;;;;5069723;28;19909;-59
2022/06/15 12:20:34;;;;;;;;;;;;;;;;;;5073477;28;19961;-59
2022/06/15 12:23:01;;;;;;;;;;;;;;;;;;5066926;28;19950;-59
2022/06/15 12:25:27;;;;;;;;;;;;;;;;;;5065968;28;20375;-59
2022/06/15 12:27:53;;;;;;;;;;;;;;;;;;5065906;28;19962;-58
2022/06/15 12:30:20;;;;;;;;;;;;;;;;;;5068202;28;19920;-58
2022/06/15 12:32:46;;;;;;;;;;;;;;;;;;5066398;28;20337;-58
2022/06/15 12:35:12;;;;;;;;;;;;;;;;;;5066256;28;19908;-58
2022/06/15 12:37:38;;;;;;;;;;;;;;;;;;5066453;28;19961;-58
2022/06/15 12:40:05;;;;;;;;;;;;;;;;;;5058448;28;19959;-59
2022/06/15 12:42:32;;;;;;;;;;;;;;;;;;5070633;28;19999;-58
2022/06/15 12:44:58;;;;;;;;;;;;;;;;;;5070134;28;19962;-58
2022/06/15 12:47:24;;;;;;;;;;;;;;;;;;5083229;28;19912;-58
2022/06/15 12:49:50;;;;;;;;;;;;;;;;;;5061076;28;20304;-58
2022/06/15 12:52:16;;;;;;;;;;;;;;;;;;5074009;28;19908;-58
2022/06/15 12:54:42;;;;;;;;;;;;;;;;;;5070175;28;19912;-58
2022/06/15 12:57:08;;;;;;;;;;;;;;;;;;5091460;28;19907;-59
2022/06/15 12:59:34;;;;;;;;;;;;;;;;;;5090121;28;20386;-58
2022/06/15 13:02:00;;;;;;;;;;;;;;;;;;5092402;28;19904;-58
2022/06/15 13:04:26;;;;;;;;;;;;;;;;;;5070966;28;19920;-58
2022/06/15 13:06:53;;;;;;;;;;;;;;;;;;5070759;28;19912;-58
2022/06/15 13:09:19;;;;;;;;;;;;;;;;;;5070907;28;20435;-58
2022/06/15 13:11:46;;;;;;;;;;;;;;;;;;5071032;28;19912;-58
2022/06/15 13:14:12;;;;;;;;;;;;;;;;;;5054174;28;20105;-58
2022/06/15 13:16:38;;;;;;;;;;;;;;;;;;5053575;28;19912;-58
2022/06/15 13:19:04;;;;;;;;;;;;;;;;;;5079610;28;20318;-58
2022/06/15 13:21:30;;;;;;;;;;;;;;;;;;5091170;28;19908;-58
2022/06/15 13:23:56;;;;;;;;;;;;;;;;;;5090786;28;19900;-58
2022/06/15 13:26:22;;;;;;;;;;;;;;;;;;5090279;28;19904;-58
2022/06/15 13:28:48;;;;;;;;;;;;;;;;;;5085973;28;20005;-58
2022/06/15 13:31:14;;;;;;;;;;;;;;;;;;5069891;28;20070;-58
2022/06/15 13:33:39;;;;;;;;;;;;;;;;;;5088750;28;19908;-58
2022/06/15 13:36:05;;;;;;;;;;;;;;;;;;5075371;28;20003;-58
2022/06/15 13:38:31;;;;;;;;;;;;;;;;;;5070690;28;20025;-58
2022/06/15 13:40:57;;;;;;;;;;;;;;;;;;5070041;28;19944;-57
2022/06/15 13:43:23;;;;;;;;;;;;;;;;;;5069990;28;19918;-58
2022/06/15 13:45:49;;;;;;;;;;;;;;;;;;5070173;28;19908;-58
2022/06/15 13:48:15;;;;;;;;;;;;;;;;;;5069786;28;19912;-58
2022/06/15 13:50:41;;;;;;;;;;;;;;;;;;5057327;28;19912;-58
2022/06/15 13:53:07;;;;;;;;;;;;;;;;;;5062775;28;19905;-58
2022/06/15 13:55:33;;;;;;;;;;;;;;;;;;5059731;28;19916;-58
2022/06/15 13:57:59;;;;;;;;;;;;;;;;;;5070324;28;19908;-58
2022/06/15 14:00:25;;;;;;;;;;;;;;;;;;5066691;28;20007;-58
2022/06/15 14:02:51;;;;;;;;;;;;;;;;;;5073001;28;19905;-59
2022/06/15 14:05:17;;;;;;;;;;;;;;;;;;5064568;28;19954;-58
2022/06/15 14:07:43;;;;;;;;;;;;;;;;;;5064522;28;19913;-59
2022/06/15 14:10:09;;;;;;;;;;;;;;;;;;5070477;28;19977;-58
2022/06/15 14:12:35;;;;;;;;;;;;;;;;;;5073657;28;19908;-58
2022/06/15 14:15:01;;;;;;;;;;;;;;;;;;5060689;28;19904;-58
2022/06/15 14:17:27;;;;;;;;;;;;;;;;;;5079077;28;19919;-58
2022/06/15 14:19:56;;;;;;;;;;;;;;;;;;5070729;28;19916;-58
2022/06/15 14:22:22;;;;;;;;;;;;;;;;;;5069764;28;20279;-58
2022/06/15 14:24:48;;;;;;;;;;;;;;;;;;5068311;28;19908;-58
2022/06/15 14:27:15;;;;;;;;;;;;;;;;;;5068023;28;19935;-58
2022/06/15 14:29:41;;;;;;;;;;;;;;;;;;5076448;28;19916;-58
2022/06/15 14:32:07;;;;;;;;;;;;;;;;;;5068546;28;20464;-58
2022/06/15 14:34:33;;;;;;;;;;;;;;;;;;5068753;28;19908;-58
2022/06/15 14:37:00;;;;;;;;;;;;;;;;;;5069330;28;19908;-58
2022/06/15 14:39:26;;;;;;;;;;;;;;;;;;5068057;28;20294;-58
2022/06/15 14:41:52;;;;;;;;;;;;;;;;;;5068658;28;20982;-58
2022/06/15 14:44:18;;;;;;;;;;;;;;;;;;5072747;28;19908;-58
2022/06/15 14:46:48;;;;;;;;;;;;;;;;;;5088351;28;19908;-58
2022/06/15 14:49:15;;;;;;;;;;;;;;;;;;5089243;28;19915;-58
2022/06/15 14:51:41;;;;;;;;;;;;;;;;;;5068115;28;19954;-58
2022/06/15 14:54:09;;;;;;;;;;;;;;;;;;5067708;28;19993;-58
2022/06/15 14:56:35;;;;;;;;;;;;;;;;;;5067699;28;19923;-59
2022/06/15 14:59:02;;;;;;;;;;;;;;;;;;5072019;28;20295;-58
2022/06/15 15:01:29;;;;;;;;;;;;;;;;;;5064459;28;19909;-58
2022/06/15 15:03:55;;;;;;;;;;;;;;;;;;5057206;28;20007;-58
2022/06/15 15:06:22;;;;;;;;;;;;;;;;;;5059026;28;20459;-58
2022/06/15 15:08:48;;;;;;;;;;;;;;;;;;5065352;28;20379;-58
2022/06/15 15:11:14;;;;;;;;;;;;;;;;;;5066733;28;19959;-58
2022/06/15 15:13:44;;;;;;;;;;;;;;;;;;5067401;28;20461;-58
2022/06/15 15:16:10;;;;;;;;;;;;;;;;;;5066999;28;19908;-58
2022/06/15 15:18:36;;;;;;;;;;;;;;;;;;5067312;28;19931;-58
2022/06/15 15:21:02;;;;;;;;;;;;;;;;;;5068035;28;19923;-59
2022/06/15 15:23:28;;;;;;;;;;;;;;;;;;5067676;28;19904;-58
2022/06/15 15:25:54;;;;;;;;;;;;;;;;;;5067486;28;19909;-58
2022/06/15 15:39:49;;;;;;;1.38;0.90;;;;;;;;;;5063077;28;20051;-58
2022/06/15 15:42:18;;;;;;;1.02;0.80;;;;;;;;;;5066619;28;20110;-58
2022/06/15 15:44:44;;;;;;;;;;;;;;;;;;5066970;28;20407;-58
2022/06/15 15:47:10;;;;;;;;;;;;;;;;;;5076441;28;20002;-58
2022/06/15 15:49:37;;;;;;;;;;;;;;;;;;5087071;28;20015;-59
2022/06/15 15:52:02;;;;;;;;;;;;;;;;;;5069918;28;19931;-58
2022/06/15 15:54:28;;;;;;;;;;;;;;;;;;5068149;28;20010;-58
2022/06/15 15:56:54;;;;;;;;;;;;;;;;;;5068166;28;19923;-58
2022/06/15 15:59:24;;;;;;;;;;;;;;;;;;5087594;28;20331;-58
2022/06/15 16:01:50;;;;;;;;;;;;;;;;;;5081592;28;20027;-58
2022/06/15 16:04:16;;;;;;;;;;;;;;;;;;5061722;28;20047;-58
2022/06/15 16:06:42;;;;;;;;;;;;;;;;;;5066963;28;19912;-58
2022/06/15 16:09:08;;;;;;;;;;;;;;;;;;5052412;28;19996;-58
2022/06/15 16:11:33;;;;;;;;;;;;;;;;;;5067915;28;20392;-58
2022/06/15 16:13:59;;;;;;;;;;;;;;;;;;5068590;28;19904;-58
2022/06/15 16:16:25;;;;;;;;;;;;;;;;;;5067038;28;19919;-58
2022/06/15 16:18:53;;;;;;;;;;;;;;;;;;5068016;28;20260;-58
2022/06/15 16:21:19;;;;;;;;;;;;;;;;;;5067503;28;19923;-58
2022/06/15 16:23:44;;;;;;;;;;;;;;;;;;5084007;28;20450;-58
2022/06/15 16:26:11;;;;;;;;;;;;;;;;;;5081823;28;19912;-58
2022/06/15 16:28:38;;;;;;;;;;;;;;;;;;5077857;28;19919;-58
2022/06/15 16:31:04;;;;;;;;;;;;;;;;;;5074667;28;20261;-59
2022/06/15 16:33:30;;;;;;;;;;;;;;;;;;5065494;28;19920;-58
2022/06/15 16:35:59;;;;;;;;;;;;;;;;;;5065091;28;20333;-59
2022/06/15 16:38:25;;;;;;;;;;;;;;;;;;5063676;28;19908;-58
2022/06/15 16:41:08;;;;;;;;;;;;;;;;;;5069853;28;20277;-58
2022/06/15 16:43:35;;;;;;;;;;;;;;;;;;5064781;28;19940;-58
2022/06/15 16:46:01;;;;;;;;;;;;;;;;;;5068540;28;20468;-58
2022/06/15 16:48:27;;;;;;;;;;;;;;;;;;5065358;28;19943;-58
2022/06/15 16:50:53;;;;;;;;;;;;;;;;;;5064549;28;20110;-58
2022/06/15 16:53:19;;;;;;;;;;;;;;;;;;5064027;28;19909;-58
2022/06/15 16:55:48;;;;;;;;;;;;;;;;;;5059248;28;19924;-59
2022/06/15 16:58:14;;;;;;;;;;;;;;;;;;5076720;28;19959;-58
2022/06/15 17:00:40;;;;;;;;;;;;;;;;;;5054200;28;20450;-58